Hurricane Ridge WA US NWAVAL current weather conditions

sailwx.info

Wind from 160 at 6 knots gusting 10

Air temperature 7.7° C
Dewpoint 7.4° C

Last reported at 2019-Sep-15 06:00 UTC.
Time now 2019-Sep-15 07:38 UTC

Location: N 47°58' W 123°30'.
View on Google Maps.

See reports from other nearby stations

  
Tides and Currents Weather Stations Pressure Air Temp Water Temp Dewpoint Dewpoint Depression Visibility Wind Speed Wind Dir Waves Ship Positions
date/time (UTC)wind fromknots sea level pressurealtimeterstation pressurevisibilityair tempwater tempwave heightnotes
2019-Sep-15 06:00 160 6 gusting 10 7.7
2019-Sep-15 05:00 166 7 gusting 13 7.7
2019-Sep-15 04:00 167 7 gusting 12 7.7
2019-Sep-15 03:00 164 9 gusting 16 7.6
2019-Sep-15 01:00 166 11 gusting 18 7.5
2019-Sep-14 23:00 169 9 gusting 16 7.6
2019-Sep-14 22:00 170 11 gusting 17 7.2
2019-Sep-14 21:00 169 10 gusting 16 7.4
2019-Sep-14 20:00 170 10 gusting 15 7.0
2019-Sep-14 18:00 172 9 gusting 13 6.8
2019-Sep-14 17:00 166 10 gusting 16 6.4
2019-Sep-14 16:00 163 10 gusting 16 6.1
2019-Sep-14 15:00 165 10 gusting 14 5.6
2019-Sep-14 14:00 161 9 gusting 16 5.6
2019-Sep-14 12:00 157 9 gusting 15 6.0
2019-Sep-14 11:00 179 3 gusting 8 6.6
2019-Sep-14 10:00 172 4 gusting 8 7.0
2019-Sep-14 08:00 158 7 gusting 13 7.2
2019-Sep-14 07:00 165 9 gusting 13 7.0
2019-Sep-14 06:00 171 6 gusting 11 7.2
2019-Sep-14 05:00 173 3 gusting 8 7.3
2019-Sep-14 04:00 175 4 gusting 8 7.6
2019-Sep-14 02:00 174 4 gusting 7 7.8
2019-Sep-14 01:00 176 5 gusting 8 8.1
2019-Sep-14 00:00 179 4 gusting 9 8.6
2019-Sep-13 22:00 181 3 gusting 9 9.1
2019-Sep-13 21:00 177 5 gusting 8 8.5
2019-Sep-13 20:00 173 4 gusting 9 8.3
2019-Sep-13 19:00 185 4 gusting 9 8.1
2019-Sep-13 15:00 170 5 gusting 9 6.5
2019-Sep-13 14:00 162 5 gusting 9 6.2
2019-Sep-13 13:00 173 4 gusting 8 5.8
2019-Sep-13 12:00 178 4 gusting 7 6.2
2019-Sep-13 11:00 164 3 gusting 6 6.3
2019-Sep-13 10:00 173 5 gusting 9 5.8
2019-Sep-13 09:00 168 8 gusting 13 5.3
2019-Sep-13 07:00 193 6 gusting 11 7.1